sensor_id;sensor_type;location;lat;lon;timestamp;temperature;humidity
32215;DHT22;18708;53.124;23.190;2023-06-14T00:01:02;15.00;99.90
32215;DHT22;18708;53.124;23.190;2023-06-14T00:03:28;15.00;99.90
32215;DHT22;18708;53.124;23.190;2023-06-14T00:05:54;15.00;99.90
32215;DHT22;18708;53.124;23.190;2023-06-14T00:08:20;14.90;99.90
32215;DHT22;18708;53.124;23.190;2023-06-14T00:10:48;14.80;99.90
32215;DHT22;18708;53.124;23.190;2023-06-14T00:13:14;14.80;99.90
32215;DHT22;18708;53.124;23.190;2023-06-14T00:15:40;14.80;99.90
32215;DHT22;18708;53.124;23.190;2023-06-14T00:18:06;14.80;99.90
32215;DHT22;18708;53.124;23.190;2023-06-14T00:20:33;14.70;99.90
32215;DHT22;18708;53.124;23.190;2023-06-14T00:22:59;14.70;99.90
32215;DHT22;18708;53.124;23.190;2023-06-14T00:25:25;14.60;99.90
32215;DHT22;18708;53.124;23.190;2023-06-14T00:27:51;14.50;99.90
32215;DHT22;18708;53.124;23.190;2023-06-14T00:30:17;14.50;99.90
32215;DHT22;18708;53.124;23.190;2023-06-14T00:32:44;14.50;99.90
32215;DHT22;18708;53.124;23.190;2023-06-14T00:35:10;14.40;99.90
32215;DHT22;18708;53.124;23.190;2023-06-14T00:37:36;14.40;99.90
32215;DHT22;18708;53.124;23.190;2023-06-14T00:40:03;14.50;99.90
32215;DHT22;18708;53.124;23.190;2023-06-14T00:42:29;14.50;99.90
32215;DHT22;18708;53.124;23.190;2023-06-14T00:44:56;14.50;99.90
32215;DHT22;18708;53.124;23.190;2023-06-14T00:47:22;14.50;99.90
32215;DHT22;18708;53.124;23.190;2023-06-14T00:49:52;14.30;99.90
32215;DHT22;18708;53.124;23.190;2023-06-14T00:52:18;14.20;99.90
32215;DHT22;18708;53.124;23.190;2023-06-14T00:54:44;14.10;99.90
32215;DHT22;18708;53.124;23.190;2023-06-14T00:57:11;14.10;99.90
32215;DHT22;18708;53.124;23.190;2023-06-14T00:59:43;14.10;99.90
32215;DHT22;18708;53.124;23.190;2023-06-14T01:02:10;14.10;99.90
32215;DHT22;18708;53.124;23.190;2023-06-14T01:04:36;13.90;99.90
32215;DHT22;18708;53.124;23.190;2023-06-14T01:07:11;13.90;99.90
32215;DHT22;18708;53.124;23.190;2023-06-14T01:12:29;13.90;99.90
32215;DHT22;18708;53.124;23.190;2023-06-14T01:14:57;14.10;99.90
32215;DHT22;18708;53.124;23.190;2023-06-14T01:17:25;14.30;99.90
32215;DHT22;18708;53.124;23.190;2023-06-14T01:19:52;14.30;99.90
32215;DHT22;18708;53.124;23.190;2023-06-14T01:22:27;14.40;99.90
32215;DHT22;18708;53.124;23.190;2023-06-14T01:24:54;14.20;99.90
32215;DHT22;18708;53.124;23.190;2023-06-14T01:27:24;14.10;99.90
32215;DHT22;18708;53.124;23.190;2023-06-14T01:29:55;14.00;99.90
32215;DHT22;18708;53.124;23.190;2023-06-14T01:32:24;13.90;99.90
32215;DHT22;18708;53.124;23.190;2023-06-14T01:34:51;13.90;99.90
32215;DHT22;18708;53.124;23.190;2023-06-14T01:37:18;13.80;99.90
32215;DHT22;18708;53.124;23.190;2023-06-14T01:39:44;13.80;99.90
32215;DHT22;18708;53.124;23.190;2023-06-14T01:42:13;13.70;99.90
32215;DHT22;18708;53.124;23.190;2023-06-14T01:44:41;13.60;99.90
32215;DHT22;18708;53.124;23.190;2023-06-14T01:47:07;13.60;99.90
32215;DHT22;18708;53.124;23.190;2023-06-14T01:49:34;13.60;99.90
32215;DHT22;18708;53.124;23.190;2023-06-14T01:52:00;13.60;99.90
32215;DHT22;18708;53.124;23.190;2023-06-14T01:54:26;13.50;99.90
32215;DHT22;18708;53.124;23.190;2023-06-14T01:56:53;13.50;99.90
32215;DHT22;18708;53.124;23.190;2023-06-14T01:59:18;13.50;99.90
32215;DHT22;18708;53.124;23.190;2023-06-14T02:01:44;13.50;99.90
32215;DHT22;18708;53.124;23.190;2023-06-14T02:04:11;13.40;99.90
32215;DHT22;18708;53.124;23.190;2023-06-14T02:06:37;13.40;99.90
32215;DHT22;18708;53.124;23.190;2023-06-14T02:09:03;13.40;99.90
32215;DHT22;18708;53.124;23.190;2023-06-14T02:11:29;13.40;99.90
32215;DHT22;18708;53.124;23.190;2023-06-14T02:13:55;13.40;99.90
32215;DHT22;18708;53.124;23.190;2023-06-14T02:16:21;13.40;99.90
32215;DHT22;18708;53.124;23.190;2023-06-14T02:18:47;13.50;99.90
32215;DHT22;18708;53.124;23.190;2023-06-14T02:21:14;13.50;99.90
32215;DHT22;18708;53.124;23.190;2023-06-14T02:23:40;13.40;99.90
32215;DHT22;18708;53.124;23.190;2023-06-14T02:26:06;13.30;99.90
32215;DHT22;18708;53.124;23.190;2023-06-14T02:28:31;13.30;99.90
32215;DHT22;18708;53.124;23.190;2023-06-14T02:30:57;13.20;99.90
32215;DHT22;18708;53.124;23.190;2023-06-14T02:33:23;13.20;99.90
32215;DHT22;18708;53.124;23.190;2023-06-14T02:35:48;13.20;99.90
32215;DHT22;18708;53.124;23.190;2023-06-14T02:38:15;13.30;99.90
32215;DHT22;18708;53.124;23.190;2023-06-14T02:40:41;13.30;99.90
32215;DHT22;18708;53.124;23.190;2023-06-14T02:43:08;13.30;99.90
32215;DHT22;18708;53.124;23.190;2023-06-14T02:45:33;13.30;99.90
32215;DHT22;18708;53.124;23.190;2023-06-14T02:47:59;13.30;99.90
32215;DHT22;18708;53.124;23.190;2023-06-14T02:50:25;13.30;99.90
32215;DHT22;18708;53.124;23.190;2023-06-14T02:52:53;13.30;99.90
32215;DHT22;18708;53.124;23.190;2023-06-14T02:55:21;13.30;99.90
32215;DHT22;18708;53.124;23.190;2023-06-14T02:57:46;13.20;99.90
32215;DHT22;18708;53.124;23.190;2023-06-14T03:00:13;13.20;99.90
32215;DHT22;18708;53.124;23.190;2023-06-14T03:02:39;13.20;99.90
32215;DHT22;18708;53.124;23.190;2023-06-14T03:05:05;13.20;99.90
32215;DHT22;18708;53.124;23.190;2023-06-14T03:07:32;13.20;99.90
32215;DHT22;18708;53.124;23.190;2023-06-14T03:09:58;13.30;99.90
32215;DHT22;18708;53.124;23.190;2023-06-14T03:12:24;13.40;99.90
32215;DHT22;18708;53.124;23.190;2023-06-14T03:14:50;13.40;99.90
32215;DHT22;18708;53.124;23.190;2023-06-14T03:17:17;13.50;99.90
32215;DHT22;18708;53.124;23.190;2023-06-14T03:19:43;13.50;99.90
32215;DHT22;18708;53.124;23.190;2023-06-14T03:22:09;13.60;99.90
32215;DHT22;18708;53.124;23.190;2023-06-14T03:24:37;13.60;99.90
32215;DHT22;18708;53.124;23.190;2023-06-14T03:27:03;13.70;99.90
32215;DHT22;18708;53.124;23.190;2023-06-14T03:29:29;13.70;99.90
32215;DHT22;18708;53.124;23.190;2023-06-14T03:31:59;13.80;99.90
32215;DHT22;18708;53.124;23.190;2023-06-14T03:34:25;13.80;99.90
32215;DHT22;18708;53.124;23.190;2023-06-14T03:36:51;13.80;99.90
32215;DHT22;18708;53.124;23.190;2023-06-14T03:39:17;13.80;99.90
32215;DHT22;18708;53.124;23.190;2023-06-14T03:41:43;13.80;99.90
32215;DHT22;18708;53.124;23.190;2023-06-14T03:44:08;13.90;99.90
32215;DHT22;18708;53.124;23.190;2023-06-14T03:46:34;14.00;99.90
32215;DHT22;18708;53.124;23.190;2023-06-14T03:48:59;14.00;99.90
32215;DHT22;18708;53.124;23.190;2023-06-14T03:51:25;14.00;99.90
32215;DHT22;18708;53.124;23.190;2023-06-14T03:53:51;14.20;99.90
32215;DHT22;18708;53.124;23.190;2023-06-14T03:56:17;14.20;99.90
32215;DHT22;18708;53.124;23.190;2023-06-14T03:58:42;14.30;99.90
32215;DHT22;18708;53.124;23.190;2023-06-14T04:01:08;14.40;99.90
32215;DHT22;18708;53.124;23.190;2023-06-14T04:03:34;14.50;99.90
32215;DHT22;18708;53.124;23.190;2023-06-14T04:06:00;14.50;99.90
32215;DHT22;18708;53.124;23.190;2023-06-14T04:08:26;14.60;99.90
32215;DHT22;18708;53.124;23.190;2023-06-14T04:10:51;14.70;99.90
32215;DHT22;18708;53.124;23.190;2023-06-14T04:13:17;14.70;99.90
32215;DHT22;18708;53.124;23.190;2023-06-14T04:15:43;14.70;99.90
32215;DHT22;18708;53.124;23.190;2023-06-14T04:18:11;14.70;99.90
32215;DHT22;18708;53.124;23.190;2023-06-14T04:20:37;14.70;99.90
32215;DHT22;18708;53.124;23.190;2023-06-14T04:23:16;14.60;99.90
32215;DHT22;18708;53.124;23.190;2023-06-14T04:25:44;14.40;99.90
32215;DHT22;18708;53.124;23.190;2023-06-14T04:28:13;14.50;99.90
32215;DHT22;18708;53.124;23.190;2023-06-14T04:30:41;14.40;99.90
32215;DHT22;18708;53.124;23.190;2023-06-14T04:33:07;14.40;99.90
32215;DHT22;18708;53.124;23.190;2023-06-14T04:35:33;14.60;99.90
32215;DHT22;18708;53.124;23.190;2023-06-14T04:38:01;14.70;99.90
32215;DHT22;18708;53.124;23.190;2023-06-14T04:40:30;14.70;99.90
32215;DHT22;18708;53.124;23.190;2023-06-14T04:42:56;14.80;99.90
32215;DHT22;18708;53.124;23.190;2023-06-14T04:45:23;14.90;99.90
32215;DHT22;18708;53.124;23.190;2023-06-14T04:47:49;14.90;99.90
32215;DHT22;18708;53.124;23.190;2023-06-14T04:50:16;15.00;99.90
32215;DHT22;18708;53.124;23.190;2023-06-14T04:52:42;15.10;99.90
32215;DHT22;18708;53.124;23.190;2023-06-14T04:55:08;15.20;99.90
32215;DHT22;18708;53.124;23.190;2023-06-14T04:57:34;15.20;99.90
32215;DHT22;18708;53.124;23.190;2023-06-14T05:00:00;15.20;99.90
32215;DHT22;18708;53.124;23.190;2023-06-14T05:02:29;15.10;99.90
32215;DHT22;18708;53.124;23.190;2023-06-14T05:04:56;15.10;99.90
32215;DHT22;18708;53.124;23.190;2023-06-14T05:07:22;15.20;99.90
32215;DHT22;18708;53.124;23.190;2023-06-14T05:09:49;15.30;99.90
32215;DHT22;18708;53.124;23.190;2023-06-14T05:12:15;15.40;99.90
32215;DHT22;18708;53.124;23.190;2023-06-14T05:14:44;15.30;99.90
32215;DHT22;18708;53.124;23.190;2023-06-14T05:17:10;15.20;99.90
32215;DHT22;18708;53.124;23.190;2023-06-14T05:19:35;15.30;99.90
32215;DHT22;18708;53.124;23.190;2023-06-14T05:22:01;15.50;99.90
32215;DHT22;18708;53.124;23.190;2023-06-14T05:24:28;15.30;99.90
32215;DHT22;18708;53.124;23.190;2023-06-14T05:26:56;15.10;99.90
32215;DHT22;18708;53.124;23.190;2023-06-14T05:29:22;15.20;99.90
32215;DHT22;18708;53.124;23.190;2023-06-14T05:31:47;15.10;99.90
32215;DHT22;18708;53.124;23.190;2023-06-14T05:34:13;15.00;99.90
32215;DHT22;18708;53.124;23.190;2023-06-14T05:36:39;14.90;99.90
32215;DHT22;18708;53.124;23.190;2023-06-14T05:39:04;15.00;99.90
32215;DHT22;18708;53.124;23.190;2023-06-14T05:41:31;14.90;99.90
32215;DHT22;18708;53.124;23.190;2023-06-14T05:43:57;14.90;99.90
32215;DHT22;18708;53.124;23.190;2023-06-14T05:46:23;14.80;99.90
32215;DHT22;18708;53.124;23.190;2023-06-14T05:48:54;14.80;99.90
32215;DHT22;18708;53.124;23.190;2023-06-14T05:51:20;14.90;99.90
32215;DHT22;18708;53.124;23.190;2023-06-14T05:53:49;14.80;99.90
32215;DHT22;18708;53.124;23.190;2023-06-14T05:56:16;14.90;99.90
32215;DHT22;18708;53.124;23.190;2023-06-14T05:58:43;15.10;99.90
32215;DHT22;18708;53.124;23.190;2023-06-14T06:01:09;15.20;99.90
32215;DHT22;18708;53.124;23.190;2023-06-14T06:03:35;15.00;99.90
32215;DHT22;18708;53.124;23.190;2023-06-14T06:06:00;15.10;99.90
32215;DHT22;18708;53.124;23.190;2023-06-14T06:08:26;15.10;99.90
32215;DHT22;18708;53.124;23.190;2023-06-14T06:10:52;15.10;99.90
32215;DHT22;18708;53.124;23.190;2023-06-14T06:13:18;15.20;99.90
32215;DHT22;18708;53.124;23.190;2023-06-14T06:15:44;15.20;99.90
32215;DHT22;18708;53.124;23.190;2023-06-14T06:18:10;15.10;99.90
32215;DHT22;18708;53.124;23.190;2023-06-14T06:20:35;15.00;99.90
32215;DHT22;18708;53.124;23.190;2023-06-14T06:23:02;15.00;99.90
32215;DHT22;18708;53.124;23.190;2023-06-14T06:25:28;14.70;99.90
32215;DHT22;18708;53.124;23.190;2023-06-14T06:27:55;14.60;99.90
32215;DHT22;18708;53.124;23.190;2023-06-14T06:30:24;14.50;99.90
32215;DHT22;18708;53.124;23.190;2023-06-14T06:32:50;14.70;99.90
32215;DHT22;18708;53.124;23.190;2023-06-14T06:35:16;14.90;99.90
32215;DHT22;18708;53.124;23.190;2023-06-14T06:37:43;14.90;99.90
32215;DHT22;18708;53.124;23.190;2023-06-14T06:40:09;14.90;99.90
32215;DHT22;18708;53.124;23.190;2023-06-14T06:42:35;15.10;99.90
32215;DHT22;18708;53.124;23.190;2023-06-14T06:45:01;15.10;99.90
32215;DHT22;18708;53.124;23.190;2023-06-14T06:47:27;15.20;99.90
32215;DHT22;18708;53.124;23.190;2023-06-14T06:49:52;15.30;99.90
32215;DHT22;18708;53.124;23.190;2023-06-14T06:52:18;15.40;99.90
32215;DHT22;18708;53.124;23.190;2023-06-14T06:54:44;15.30;99.90
32215;DHT22;18708;53.124;23.190;2023-06-14T06:57:09;15.20;99.90
32215;DHT22;18708;53.124;23.190;2023-06-14T06:59:36;15.10;99.90
32215;DHT22;18708;53.124;23.190;2023-06-14T07:02:02;15.20;99.90
32215;DHT22;18708;53.124;23.190;2023-06-14T07:04:28;15.10;99.90
32215;DHT22;18708;53.124;23.190;2023-06-14T07:06:53;14.90;99.90
32215;DHT22;18708;53.124;23.190;2023-06-14T07:09:19;14.80;99.90
32215;DHT22;18708;53.124;23.190;2023-06-14T07:11:47;14.50;99.90
32215;DHT22;18708;53.124;23.190;2023-06-14T07:14:13;14.50;99.90
32215;DHT22;18708;53.124;23.190;2023-06-14T07:16:38;14.60;99.90
32215;DHT22;18708;53.124;23.190;2023-06-14T07:19:04;14.60;99.90
32215;DHT22;18708;53.124;23.190;2023-06-14T07:21:30;14.30;99.90
32215;DHT22;18708;53.124;23.190;2023-06-14T07:23:56;14.40;99.90
32215;DHT22;18708;53.124;23.190;2023-06-14T07:26:22;14.60;99.90
32215;DHT22;18708;53.124;23.190;2023-06-14T07:28:48;14.70;99.90
32215;DHT22;18708;53.124;23.190;2023-06-14T07:31:15;14.90;99.90
32215;DHT22;18708;53.124;23.190;2023-06-14T07:33:41;15.00;99.90
32215;DHT22;18708;53.124;23.190;2023-06-14T07:36:07;15.10;99.90
32215;DHT22;18708;53.124;23.190;2023-06-14T07:38:33;15.20;99.90
32215;DHT22;18708;53.124;23.190;2023-06-14T07:40:59;15.30;99.90
32215;DHT22;18708;53.124;23.190;2023-06-14T07:43:25;15.30;99.90
32215;DHT22;18708;53.124;23.190;2023-06-14T07:45:51;15.40;99.90
32215;DHT22;18708;53.124;23.190;2023-06-14T07:48:18;15.50;99.90
32215;DHT22;18708;53.124;23.190;2023-06-14T07:50:43;15.60;99.90
32215;DHT22;18708;53.124;23.190;2023-06-14T07:53:09;15.70;99.90
32215;DHT22;18708;53.124;23.190;2023-06-14T07:55:35;15.80;99.90
32215;DHT22;18708;53.124;23.190;2023-06-14T07:58:03;15.90;99.90
32215;DHT22;18708;53.124;23.190;2023-06-14T08:00:29;16.00;99.90
32215;DHT22;18708;53.124;23.190;2023-06-14T08:02:55;16.10;99.90
32215;DHT22;18708;53.124;23.190;2023-06-14T08:05:25;16.20;99.90
32215;DHT22;18708;53.124;23.190;2023-06-14T08:07:51;16.30;99.90
32215;DHT22;18708;53.124;23.190;2023-06-14T08:10:17;16.40;99.90
32215;DHT22;18708;53.124;23.190;2023-06-14T08:12:43;16.70;99.90
32215;DHT22;18708;53.124;23.190;2023-06-14T08:15:10;17.00;99.90
32215;DHT22;18708;53.124;23.190;2023-06-14T08:17:35;16.90;99.90
32215;DHT22;18708;53.124;23.190;2023-06-14T08:20:02;17.00;99.90
32215;DHT22;18708;53.124;23.190;2023-06-14T08:22:29;17.20;99.90
32215;DHT22;18708;53.124;23.190;2023-06-14T08:24:58;17.50;99.90
32215;DHT22;18708;53.124;23.190;2023-06-14T08:27:23;17.70;99.90
32215;DHT22;18708;53.124;23.190;2023-06-14T08:29:49;18.00;99.90
32215;DHT22;18708;53.124;23.190;2023-06-14T08:32:15;18.20;99.90
32215;DHT22;18708;53.124;23.190;2023-06-14T08:34:41;18.60;99.90
32215;DHT22;18708;53.124;23.190;2023-06-14T08:37:06;18.40;99.90
32215;DHT22;18708;53.124;23.190;2023-06-14T08:39:33;18.50;99.90
32215;DHT22;18708;53.124;23.190;2023-06-14T08:42:01;18.60;99.90
32215;DHT22;18708;53.124;23.190;2023-06-14T08:44:28;18.80;99.90
32215;DHT22;18708;53.124;23.190;2023-06-14T08:46:56;18.80;99.90
32215;DHT22;18708;53.124;23.190;2023-06-14T08:49:25;18.90;99.90
32215;DHT22;18708;53.124;23.190;2023-06-14T08:51:58;19.40;99.90
32215;DHT22;18708;53.124;23.190;2023-06-14T08:54:28;19.90;99.90
32215;DHT22;18708;53.124;23.190;2023-06-14T08:56:56;20.00;99.90
32215;DHT22;18708;53.124;23.190;2023-06-14T08:59:31;19.50;99.90
32215;DHT22;18708;53.124;23.190;2023-06-14T09:02:05;19.80;99.90
32215;DHT22;18708;53.124;23.190;2023-06-14T09:04:32;20.00;99.90
32215;DHT22;18708;53.124;23.190;2023-06-14T09:06:58;20.00;99.90
32215;DHT22;18708;53.124;23.190;2023-06-14T09:09:25;20.00;99.90
32215;DHT22;18708;53.124;23.190;2023-06-14T09:11:51;20.30;99.90
32215;DHT22;18708;53.124;23.190;2023-06-14T09:14:23;19.80;99.90
32215;DHT22;18708;53.124;23.190;2023-06-14T09:16:52;19.60;99.90
32215;DHT22;18708;53.124;23.190;2023-06-14T09:19:23;19.50;99.90
32215;DHT22;18708;53.124;23.190;2023-06-14T09:21:49;19.70;99.90
32215;DHT22;18708;53.124;23.190;2023-06-14T09:24:15;20.00;99.90
32215;DHT22;18708;53.124;23.190;2023-06-14T09:26:41;20.50;99.90
32215;DHT22;18708;53.124;23.190;2023-06-14T09:29:07;20.70;99.90
32215;DHT22;18708;53.124;23.190;2023-06-14T09:31:32;21.10;99.90
32215;DHT22;18708;53.124;23.190;2023-06-14T09:33:58;21.40;99.90
32215;DHT22;18708;53.124;23.190;2023-06-14T09:36:27;21.90;99.90
32215;DHT22;18708;53.124;23.190;2023-06-14T09:38:55;21.90;99.90
32215;DHT22;18708;53.124;23.190;2023-06-14T09:41:30;22.00;97.30
32215;DHT22;18708;53.124;23.190;2023-06-14T09:43:58;21.60;98.80
32215;DHT22;18708;53.124;23.190;2023-06-14T09:46:27;21.30;93.20
32215;DHT22;18708;53.124;23.190;2023-06-14T09:48:53;21.40;96.10
32215;DHT22;18708;53.124;23.190;2023-06-14T09:51:19;21.70;95.60
32215;DHT22;18708;53.124;23.190;2023-06-14T09:53:47;20.80;95.00
32215;DHT22;18708;53.124;23.190;2023-06-14T09:56:17;20.40;95.00
32215;DHT22;18708;53.124;23.190;2023-06-14T09:58:47;20.60;96.80
32215;DHT22;18708;53.124;23.190;2023-06-14T10:01:13;20.50;94.30
32215;DHT22;18708;53.124;23.190;2023-06-14T10:03:40;20.80;94.00
32215;DHT22;18708;53.124;23.190;2023-06-14T10:06:08;21.40;97.90
32215;DHT22;18708;53.124;23.190;2023-06-14T10:08:36;22.20;97.70
32215;DHT22;18708;53.124;23.190;2023-06-14T10:11:03;22.70;96.40
32215;DHT22;18708;53.124;23.190;2023-06-14T10:13:32;22.50;90.90
32215;DHT22;18708;53.124;23.190;2023-06-14T10:16:22;22.70;93.20
32215;DHT22;18708;53.124;23.190;2023-06-14T10:18:53;21.60;92.10
32215;DHT22;18708;53.124;23.190;2023-06-14T10:21:50;20.30;93.50
32215;DHT22;18708;53.124;23.190;2023-06-14T10:24:19;20.20;94.80
32215;DHT22;18708;53.124;23.190;2023-06-14T10:26:56;20.30;94.70
32215;DHT22;18708;53.124;23.190;2023-06-14T10:29:22;20.50;93.50
32215;DHT22;18708;53.124;23.190;2023-06-14T10:31:50;20.70;95.20
32215;DHT22;18708;53.124;23.190;2023-06-14T10:39:29;20.70;92.60
32215;DHT22;18708;53.124;23.190;2023-06-14T10:41:56;20.70;93.60
32215;DHT22;18708;53.124;23.190;2023-06-14T10:46:48;21.50;93.50
32215;DHT22;18708;53.124;23.190;2023-06-14T10:49:35;21.50;91.40
32215;DHT22;18708;53.124;23.190;2023-06-14T10:52:04;21.20;93.70
32215;DHT22;18708;53.124;23.190;2023-06-14T10:54:32;21.00;91.20
32215;DHT22;18708;53.124;23.190;2023-06-14T10:56:58;20.60;92.30
32215;DHT22;18708;53.124;23.190;2023-06-14T10:59:24;20.70;93.20
32215;DHT22;18708;53.124;23.190;2023-06-14T11:02:22;20.30;92.50
32215;DHT22;18708;53.124;23.190;2023-06-14T11:04:52;20.20;93.20
32215;DHT22;18708;53.124;23.190;2023-06-14T11:12:47;20.20;93.00
32215;DHT22;18708;53.124;23.190;2023-06-14T11:15:13;19.80;92.00
32215;DHT22;18708;53.124;23.190;2023-06-14T11:17:39;20.10;92.40
32215;DHT22;18708;53.124;23.190;2023-06-14T11:20:12;20.20;93.50
32215;DHT22;18708;53.124;23.190;2023-06-14T11:22:44;20.50;93.30
32215;DHT22;18708;53.124;23.190;2023-06-14T11:25:11;20.50;91.90
32215;DHT22;18708;53.124;23.190;2023-06-14T11:27:37;20.60;91.20
32215;DHT22;18708;53.124;23.190;2023-06-14T11:30:03;20.60;91.90
32215;DHT22;18708;53.124;23.190;2023-06-14T11:32:32;20.70;91.30
32215;DHT22;18708;53.124;23.190;2023-06-14T11:34:58;20.80;90.80
32215;DHT22;18708;53.124;23.190;2023-06-14T11:37:26;20.80;90.80
32215;DHT22;18708;53.124;23.190;2023-06-14T11:39:57;20.60;92.40
32215;DHT22;18708;53.124;23.190;2023-06-14T11:42:24;20.70;91.10
32215;DHT22;18708;53.124;23.190;2023-06-14T11:44:50;20.60;92.00
32215;DHT22;18708;53.124;23.190;2023-06-14T11:47:16;20.70;90.40
32215;DHT22;18708;53.124;23.190;2023-06-14T11:49:41;20.70;91.30
32215;DHT22;18708;53.124;23.190;2023-06-14T11:52:07;20.50;91.90
32215;DHT22;18708;53.124;23.190;2023-06-14T11:54:33;20.40;91.40
32215;DHT22;18708;53.124;23.190;2023-06-14T11:56:59;20.20;91.20
32215;DHT22;18708;53.124;23.190;2023-06-14T11:59:25;20.00;91.40
32215;DHT22;18708;53.124;23.190;2023-06-14T12:01:53;19.90;91.70
32215;DHT22;18708;53.124;23.190;2023-06-14T12:04:26;19.90;91.30
32215;DHT22;18708;53.124;23.190;2023-06-14T12:06:52;20.00;92.50
32215;DHT22;18708;53.124;23.190;2023-06-14T12:09:19;20.20;91.60
32215;DHT22;18708;53.124;23.190;2023-06-14T12:11:45;20.00;91.00
32215;DHT22;18708;53.124;23.190;2023-06-14T12:14:11;19.80;91.90
32215;DHT22;18708;53.124;23.190;2023-06-14T12:16:38;19.80;91.80
32215;DHT22;18708;53.124;23.190;2023-06-14T12:19:16;19.70;91.80
32215;DHT22;18708;53.124;23.190;2023-06-14T12:21:43;19.70;92.40
32215;DHT22;18708;53.124;23.190;2023-06-14T12:24:09;19.80;91.30
32215;DHT22;18708;53.124;23.190;2023-06-14T12:26:40;19.80;92.50
32215;DHT22;18708;53.124;23.190;2023-06-14T12:29:07;20.00;91.70
32215;DHT22;18708;53.124;23.190;2023-06-14T12:31:33;20.20;91.40
32215;DHT22;18708;53.124;23.190;2023-06-14T12:33:59;20.10;90.50
32215;DHT22;18708;53.124;23.190;2023-06-14T12:36:24;20.10;91.10
32215;DHT22;18708;53.124;23.190;2023-06-14T12:38:51;19.80;90.80
32215;DHT22;18708;53.124;23.190;2023-06-14T12:41:21;19.70;90.80
32215;DHT22;18708;53.124;23.190;2023-06-14T12:43:48;19.80;91.40
32215;DHT22;18708;53.124;23.190;2023-06-14T12:46:13;19.80;90.50
32215;DHT22;18708;53.124;23.190;2023-06-14T12:48:39;19.80;90.20
32215;DHT22;18708;53.124;23.190;2023-06-14T12:51:05;19.70;91.00
32215;DHT22;18708;53.124;23.190;2023-06-14T12:53:31;19.90;91.10
32215;DHT22;18708;53.124;23.190;2023-06-14T12:55:56;20.00;90.30
32215;DHT22;18708;53.124;23.190;2023-06-14T12:58:22;20.00;90.60
32215;DHT22;18708;53.124;23.190;2023-06-14T13:00:49;20.00;90.80
32215;DHT22;18708;53.124;23.190;2023-06-14T13:03:15;20.20;92.50
32215;DHT22;18708;53.124;23.190;2023-06-14T13:05:40;20.40;91.60
32215;DHT22;18708;53.124;23.190;2023-06-14T13:08:07;20.60;93.30
32215;DHT22;18708;53.124;23.190;2023-06-14T13:10:36;20.50;89.30
32215;DHT22;18708;53.124;23.190;2023-06-14T13:13:02;20.30;90.10
32215;DHT22;18708;53.124;23.190;2023-06-14T13:15:28;20.30;90.60
32215;DHT22;18708;53.124;23.190;2023-06-14T13:17:53;20.40;91.20
32215;DHT22;18708;53.124;23.190;2023-06-14T13:20:20;20.50;91.70
32215;DHT22;18708;53.124;23.190;2023-06-14T13:22:46;20.40;89.90
32215;DHT22;18708;53.124;23.190;2023-06-14T13:25:12;20.70;92.80
32215;DHT22;18708;53.124;23.190;2023-06-14T13:27:38;20.80;91.00
32215;DHT22;18708;53.124;23.190;2023-06-14T13:30:04;20.90;89.20
32215;DHT22;18708;53.124;23.190;2023-06-14T13:32:31;20.90;87.60
32215;DHT22;18708;53.124;23.190;2023-06-14T13:34:56;21.10;91.00
32215;DHT22;18708;53.124;23.190;2023-06-14T13:37:22;21.20;86.40
32215;DHT22;18708;53.124;23.190;2023-06-14T13:39:48;21.10;87.70
32215;DHT22;18708;53.124;23.190;2023-06-14T13:42:13;21.10;86.90
32215;DHT22;18708;53.124;23.190;2023-06-14T13:44:39;21.20;87.00
32215;DHT22;18708;53.124;23.190;2023-06-14T13:47:05;21.30;86.00
32215;DHT22;18708;53.124;23.190;2023-06-14T13:49:31;21.20;87.50
32215;DHT22;18708;53.124;23.190;2023-06-14T13:51:57;20.90;86.30
32215;DHT22;18708;53.124;23.190;2023-06-14T13:54:23;20.90;85.40
32215;DHT22;18708;53.124;23.190;2023-06-14T13:56:48;20.70;84.10
32215;DHT22;18708;53.124;23.190;2023-06-14T13:59:14;20.70;83.60
32215;DHT22;18708;53.124;23.190;2023-06-14T14:01:41;20.80;85.90
32215;DHT22;18708;53.124;23.190;2023-06-14T14:04:06;20.70;86.20
32215;DHT22;18708;53.124;23.190;2023-06-14T14:06:32;20.80;84.60
32215;DHT22;18708;53.124;23.190;2023-06-14T14:08:58;20.40;87.80
32215;DHT22;18708;53.124;23.190;2023-06-14T14:11:24;20.30;85.80
32215;DHT22;18708;53.124;23.190;2023-06-14T14:13:50;20.30;86.70
32215;DHT22;18708;53.124;23.190;2023-06-14T14:16:15;20.40;87.30
32215;DHT22;18708;53.124;23.190;2023-06-14T14:18:41;20.60;86.70
32215;DHT22;18708;53.124;23.190;2023-06-14T14:21:06;20.60;84.70
32215;DHT22;18708;53.124;23.190;2023-06-14T14:23:32;20.70;86.30
32215;DHT22;18708;53.124;23.190;2023-06-14T14:25:58;20.80;84.60
32215;DHT22;18708;53.124;23.190;2023-06-14T14:28:28;20.80;87.10
32215;DHT22;18708;53.124;23.190;2023-06-14T14:30:54;21.00;84.00
32215;DHT22;18708;53.124;23.190;2023-06-14T14:33:20;21.10;86.80
32215;DHT22;18708;53.124;23.190;2023-06-14T14:35:46;21.30;89.70
32215;DHT22;18708;53.124;23.190;2023-06-14T14:38:13;21.20;84.40
32215;DHT22;18708;53.124;23.190;2023-06-14T14:40:39;21.10;83.90
32215;DHT22;18708;53.124;23.190;2023-06-14T14:43:06;21.00;88.30
32215;DHT22;18708;53.124;23.190;2023-06-14T14:45:32;20.80;87.20
32215;DHT22;18708;53.124;23.190;2023-06-14T14:47:58;20.70;84.80
32215;DHT22;18708;53.124;23.190;2023-06-14T14:50:25;21.00;89.70
32215;DHT22;18708;53.124;23.190;2023-06-14T14:52:51;21.20;89.20
32215;DHT22;18708;53.124;23.190;2023-06-14T14:55:16;21.40;88.40
32215;DHT22;18708;53.124;23.190;2023-06-14T14:57:43;21.60;87.70
32215;DHT22;18708;53.124;23.190;2023-06-14T15:00:09;21.60;86.80
32215;DHT22;18708;53.124;23.190;2023-06-14T15:02:35;21.50;83.40
32215;DHT22;18708;53.124;23.190;2023-06-14T15:05:01;21.60;88.60
32215;DHT22;18708;53.124;23.190;2023-06-14T15:07:28;21.80;86.90
32215;DHT22;18708;53.124;23.190;2023-06-14T15:09:55;21.70;89.60
32215;DHT22;18708;53.124;23.190;2023-06-14T15:12:20;21.40;82.70
32215;DHT22;18708;53.124;23.190;2023-06-14T15:14:50;21.40;86.70
32215;DHT22;18708;53.124;23.190;2023-06-14T15:17:16;21.50;84.50
32215;DHT22;18708;53.124;23.190;2023-06-14T15:19:46;21.50;85.80
32215;DHT22;18708;53.124;23.190;2023-06-14T15:22:13;21.60;86.00
32215;DHT22;18708;53.124;23.190;2023-06-14T15:24:40;21.30;85.20
32215;DHT22;18708;53.124;23.190;2023-06-14T15:27:06;21.40;86.00
32215;DHT22;18708;53.124;23.190;2023-06-14T15:29:32;21.50;88.10